Time;durP1;ratioP1;P1;durP2;ratioP2;P2;SDS_P1;SDS_P2;PMS_P1;PMS_P2;Temp;Humidity;BMP_temperature;BMP_pressure;BME280_temperature;BME280_humidity;BME280_pressure;Samples;Min_cycle;Max_cycle;Signal;HPM_P1;HPM_P2
2022/09/14 00:00:56;;;;;;;0.95;0.85;;;;;;;16.12;81.44;100784.44;5051400;28;20087;-85
2022/09/14 00:03:22;;;;;;;1.27;0.80;;;;;;;16.12;81.66;100784.44;5052565;28;20021;-85
2022/09/14 00:05:48;;;;;;;0.73;0.73;;;;;;;16.11;82.24;100785.34;5051893;28;20059;-85
2022/09/14 00:08:14;;;;;;;2.43;1.00;;;;;;;16.04;81.96;100776.03;5053886;28;20112;-85
2022/09/14 00:10:40;;;;;;;1.98;0.85;;;;;;;16.03;81.70;100775.19;5055549;28;20024;-84
2022/09/14 00:13:06;;;;;;;0.65;0.57;;;;;;;16.03;81.73;100764.72;5055062;28;20035;-84
2022/09/14 00:15:35;;;;;;;1.67;0.90;;;;;;;16.01;83.47;100763.06;5055687;28;20120;-83
2022/09/14 00:18:00;;;;;;;1.92;1.30;;;;;;;15.94;83.21;100764.22;5069751;28;20126;-84
2022/09/14 00:20:25;;;;;;;1.63;0.90;;;;;;;15.90;82.33;100759.09;5074889;28;20020;-84
2022/09/14 00:22:51;;;;;;;1.40;1.20;;;;;;;15.85;83.13;100752.34;5075267;28;20031;-84
2022/09/14 00:25:17;;;;;;;1.73;1.00;;;;;;;15.84;82.61;100751.50;5075279;28;20361;-84
2022/09/14 00:27:42;;;;;;;1.50;0.93;;;;;;;15.82;83.55;100745.44;5055458;28;20028;-84
2022/09/14 00:30:08;;;;;;;0.70;0.70;;;;;;;15.79;82.86;100753.41;5055557;28;20075;-84
2022/09/14 00:32:33;;;;;;;0.70;0.60;;;;;;;15.80;82.48;100747.25;5055780;28;20066;-84
2022/09/14 00:34:59;;;;;;;1.10;0.80;;;;;;;15.81;82.38;100748.97;5054324;28;20033;-84
2022/09/14 00:37:24;;;;;;;0.57;0.50;;;;;;;15.83;82.62;100744.53;5055236;28;20036;-84
2022/09/14 00:39:49;;;;;;;0.87;0.87;;;;;;;15.87;82.60;100745.28;5055064;28;20123;-84
2022/09/14 00:42:18;;;;;;;1.30;0.97;;;;;;;15.88;82.24;100742.59;5054253;28;20033;-84
2022/09/14 00:44:46;;;;;;;0.80;0.50;;;;;;;15.89;82.49;100733.00;5055115;28;20057;-83
2022/09/14 00:47:12;;;;;;;0.60;0.60;;;;;;;15.88;82.38;100731.28;5055369;28;20029;-84
2022/09/14 00:49:40;;;;;;;0.50;0.50;;;;;;;15.86;82.91;100728.75;5054214;28;20036;-84
2022/09/14 00:52:18;;;;;;;0.57;0.57;;;;;;;15.85;82.76;100719.19;5054771;28;20025;-84
2022/09/14 00:54:51;;;;;;;0.50;0.50;;;;;;;15.86;82.69;100714.78;5054955;28;20040;-83
2022/09/14 00:57:18;;;;;;;0.90;0.70;;;;;;;15.87;82.89;100713.88;5069022;28;20435;-84
2022/09/14 00:59:45;;;;;;;0.90;0.82;;;;;;;15.85;82.61;100710.47;5074673;28;20095;-84
2022/09/14 01:02:15;;;;;;;0.57;0.47;;;;;;;15.86;85.05;100707.81;5074941;28;20024;-83
2022/09/14 01:04:41;;;;;;;1.77;0.70;;;;;;;15.80;83.74;100704.53;5074308;28;20047;-83
2022/09/14 01:07:37;;;;;;;0.77;0.60;;;;;;;15.75;83.42;100696.88;5074807;28;20054;-83
2022/09/14 01:10:36;;;;;;;0.60;0.60;;;;;;;15.71;83.69;100701.34;5074224;28;20031;-83
2022/09/14 01:13:36;;;;;;;0.80;0.80;;;;;;;15.68;83.32;100696.25;5066207;28;20039;-83
2022/09/14 01:16:22;;;;;;;0.80;0.80;;;;;;;15.63;83.39;100692.97;5045849;28;20045;-83
2022/09/14 01:19:21;;;;;;;0.80;0.65;;;;;;;15.63;83.29;100681.66;5073588;28;20017;-83
2022/09/14 01:21:48;;;;;;;0.55;0.55;;;;;;;15.62;83.33;100688.63;5042010;28;20387;-83
2022/09/14 01:24:53;;;;;;;0.60;0.60;;;;;;;15.60;83.27;100691.31;5063050;28;20029;-83
2022/09/14 01:27:40;;;;;;;2.23;0.70;;;;;;;15.58;83.35;100682.69;4973556;28;20073;-83
2022/09/14 01:30:14;;;;;;;1.00;0.88;;;;;;;15.52;83.61;100680.31;5051767;28;20432;-83
2022/09/14 01:32:39;;;;;;;0.73;0.73;;;;;;;15.47;84.32;100687.47;5053469;28;20021;-82
2022/09/14 01:35:14;;;;;;;0.87;0.87;;;;;;;15.44;84.04;100690.19;5054428;28;20025;-83
2022/09/14 01:37:55;;;;;;;0.87;0.70;;;;;;;15.41;84.25;100695.56;5053240;28;20100;-83
2022/09/14 01:40:37;;;;;;;0.52;0.52;;;;;;;15.39;83.70;100700.00;5053997;28;20355;-83
2022/09/14 01:43:10;;;;;;;1.85;1.20;;;;;;;15.32;84.82;100696.75;5054039;28;20511;-83
2022/09/14 01:45:41;;;;;;;1.95;1.40;;;;;;;15.23;84.27;100689.25;5053568;28;20024;-83
2022/09/14 01:48:09;;;;;;;0.95;0.80;;;;;;;15.19;84.17;100693.75;5054151;28;20509;-83
2022/09/14 01:50:45;;;;;;;0.70;0.70;;;;;;;15.17;84.02;100685.13;5053965;28;20032;-83
2022/09/14 01:53:17;;;;;;;0.93;0.93;;;;;;;15.17;84.14;100677.28;5053713;28;20071;-83
2022/09/14 01:55:47;;;;;;;0.60;0.60;;;;;;;15.16;84.33;100672.94;5053668;28;20446;-83
2022/09/14 01:58:42;;;;;;;1.10;0.77;;;;;;;15.17;84.12;100682.50;5053725;28;20436;-84
2022/09/14 02:01:14;;;;;;;0.90;0.90;;;;;;;15.18;84.09;100678.13;5046691;28;20033;-83
2022/09/14 02:03:54;;;;;;;0.65;0.65;;;;;;;15.17;84.29;100674.66;5053597;28;20025;-83
2022/09/14 02:06:46;;;;;;;0.80;0.70;;;;;;;15.14;84.24;100672.16;5053187;28;20079;-84
2022/09/14 02:09:17;;;;;;;0.90;0.70;;;;;;;15.11;84.21;100673.13;5053641;28;20025;-84
2022/09/14 02:11:43;;;;;;;0.90;0.80;;;;;;;15.12;84.33;100674.84;5053319;28;20036;-84
2022/09/14 02:14:09;;;;;;;1.95;0.90;;;;;;;15.09;84.32;100676.69;5059362;28;20017;-84
2022/09/14 02:16:34;;;;;;;0.80;0.80;;;;;;;15.06;84.50;100667.19;5073136;28;20043;-84
2022/09/14 02:19:00;;;;;;;1.83;0.87;;;;;;;15.06;84.56;100675.03;5073212;28;20047;-84
2022/09/14 02:21:29;;;;;;;1.10;0.80;;;;;;;15.10;84.49;100676.66;5064014;28;20053;-84
2022/09/14 02:23:55;;;;;;;0.93;0.63;;;;;;;15.10;84.27;100681.00;5052888;28;20025;-85
2022/09/14 02:26:21;;;;;;;0.70;0.68;;;;;;;15.11;84.40;100675.75;5053495;28;20025;-84
2022/09/14 02:28:47;;;;;;;0.80;0.80;;;;;;;15.11;84.32;100675.75;5052226;28;20488;-85
2022/09/14 02:31:34;;;;;;;0.60;0.60;;;;;;;15.12;84.35;100674.84;5052212;28;20043;-84
2022/09/14 02:34:13;;;;;;;0.73;0.70;;;;;;;15.13;84.51;100676.53;5052286;28;20033;-84
2022/09/14 02:37:03;;;;;;;0.70;0.70;;;;;;;15.11;85.22;100680.09;5052747;28;20021;-84
2022/09/14 02:39:35;;;;;;;0.60;0.60;;;;;;;15.09;84.53;100676.69;5053287;28;20458;-85
2022/09/14 02:42:49;;;;;;;0.88;0.80;;;;;;;15.09;84.52;100674.94;5052183;28;20111;-85
2022/09/14 02:45:26;;;;;;;0.55;0.55;;;;;;;15.08;84.45;100672.38;4973612;28;20031;-85
2022/09/14 02:47:58;;;;;;;1.60;0.77;;;;;;;15.09;84.47;100674.94;5068633;28;20178;-84
2022/09/14 02:50:32;;;;;;;0.45;0.45;;;;;;;15.08;84.59;100669.78;5073133;28;20120;-85
2022/09/14 02:53:09;;;;;;;0.68;0.60;;;;;;;15.07;84.74;100670.69;5072719;28;20032;-84
2022/09/14 02:55:40;;;;;;;1.13;0.80;;;;;;;15.06;84.51;100669.81;5071010;28;20055;-85
2022/09/14 02:58:10;;;;;;;0.52;0.52;;;;;;;15.07;84.76;100668.06;5052996;28;20044;-84
2022/09/14 03:00:40;;;;;;;0.63;0.60;;;;;;;15.04;84.12;100674.25;5053006;28;20116;-84
2022/09/14 03:03:07;;;;;;;0.60;0.50;;;;;;;15.03;84.85;100664.69;5052210;28;20017;-84
2022/09/14 03:05:33;;;;;;;1.50;0.50;;;;;;;15.05;85.00;100662.03;5052638;28;20389;-84
2022/09/14 03:08:00;;;;;;;0.63;0.50;;;;;;;15.04;85.00;100661.16;5052288;28;20115;-84
2022/09/14 03:10:25;;;;;;;0.75;0.43;;;;;;;15.06;84.82;100661.97;5052135;28;20033;-84
2022/09/14 03:12:51;;;;;;;0.90;0.70;;;;;;;15.06;85.40;100653.28;5053643;28;20032;-84
2022/09/14 03:15:16;;;;;;;0.97;0.67;;;;;;;15.03;84.82;100650.78;5072601;28;20049;-84
2022/09/14 03:17:49;;;;;;;2.23;0.80;;;;;;;15.01;85.12;100649.97;5071831;28;20032;-83
2022/09/14 03:20:19;;;;;;;0.98;0.50;;;;;;;15.00;85.08;100650.88;5072540;28;20016;-83
2022/09/14 03:22:45;;;;;;;1.42;1.00;;;;;;;14.93;85.71;100645.91;5072595;28;20047;-83
2022/09/14 03:25:10;;;;;;;1.23;0.85;;;;;;;14.88;85.58;100644.38;5071569;28;20020;-83
2022/09/14 03:27:36;;;;;;;0.70;0.70;;;;;;;14.82;85.73;100640.22;5072000;28;20048;-83
2022/09/14 03:30:02;;;;;;;1.00;0.90;;;;;;;14.75;86.87;100639.59;5072027;28;20492;-83
2022/09/14 03:32:27;;;;;;;1.92;1.23;;;;;;;14.66;87.62;100639.88;5072658;28;20025;-83
2022/09/14 03:34:53;;;;;;;1.83;1.30;;;;;;;14.62;86.22;100639.16;5072408;28;20095;-83
2022/09/14 03:37:18;;;;;;;1.23;1.13;;;;;;;14.61;86.29;100634.84;5071681;28;20025;-83
2022/09/14 03:39:43;;;;;;;0.87;0.80;;;;;;;14.60;86.17;100625.28;5072395;28;20017;-83
2022/09/14 03:42:09;;;;;;;0.90;0.90;;;;;;;14.61;86.20;100621.78;5073646;28;20530;-83
2022/09/14 03:44:34;;;;;;;4.57;1.73;;;;;;;14.51;87.53;100616.00;5058867;28;20025;-83
2022/09/14 03:46:59;;;;;;;2.00;1.50;;;;;;;14.47;87.20;100621.41;5055608;28;20428;-83
2022/09/14 03:49:25;;;;;;;3.30;1.73;;;;;;;14.41;88.90;100614.63;5056272;28;20025;-84
2022/09/14 03:51:50;;;;;;;3.07;1.60;;;;;;;14.35;88.90;100613.09;5055209;28;20031;-83
2022/09/14 03:54:15;;;;;;;4.07;1.90;;;;;;;14.26;88.56;100616.03;5056381;28;20376;-84
2022/09/14 03:56:40;;;;;;;5.37;1.93;;;;;;;14.18;88.48;100611.06;5055976;28;20021;-83
2022/09/14 03:59:09;;;;;;;5.43;1.90;;;;;;;14.15;88.73;100618.16;5055437;28;20056;-83
2022/09/14 04:01:34;;;;;;;2.25;1.85;;;;;;;14.09;88.42;100614.00;5056123;28;20032;-83
2022/09/14 04:04:00;;;;;;;2.87;1.73;;;;;;;14.06;89.48;100606.25;5055788;28;20377;-84
2022/09/14 04:06:25;;;;;;;1.60;1.50;;;;;;;14.08;88.48;100614.03;5055151;28;20025;-83
2022/09/14 04:08:51;;;;;;;4.00;1.80;;;;;;;14.05;89.83;100608.03;5055619;28;20083;-84
2022/09/14 04:11:22;;;;;;;2.80;1.70;;;;;;;14.04;89.07;100608.94;5065632;28;20028;-84
2022/09/14 04:13:48;;;;;;;2.47;1.13;;;;;;;14.04;88.62;100608.06;5074663;28;20021;-84
2022/09/14 04:16:15;;;;;;;1.30;1.20;;;;;;;14.07;88.02;100607.97;5075777;28;20044;-84
2022/09/14 04:18:41;;;;;;;1.63;1.20;;;;;;;14.05;88.66;100596.72;5075648;28;20033;-84
2022/09/14 04:21:11;;;;;;;3.43;1.50;;;;;;;14.02;89.72;100597.69;5074857;28;20032;-84
2022/09/14 04:23:36;;;;;;;2.55;1.60;;;;;;;13.97;89.62;100602.19;5075235;28;20024;-83
2022/09/14 04:26:10;;;;;;;3.20;1.43;;;;;;;13.97;88.34;100598.75;5075828;28;20029;-84
2022/09/14 04:28:35;;;;;;;1.30;1.20;;;;;;;14.00;88.34;100602.09;5074986;28;20055;-84
2022/09/14 04:31:01;;;;;;;2.87;1.50;;;;;;;14.02;88.85;100597.69;5075014;28;20032;-84
2022/09/14 04:33:31;;;;;;;1.77;1.20;;;;;;;14.01;88.25;100593.38;5074486;28;20020;-84
2022/09/14 04:35:58;;;;;;;1.30;1.20;;;;;;;14.01;87.88;100593.38;5073699;28;20345;-84
2022/09/14 04:38:24;;;;;;;4.05;1.63;;;;;;;14.00;88.72;100593.44;5075194;28;20115;-84
2022/09/14 04:40:49;;;;;;;1.75;1.35;;;;;;;13.99;88.97;100589.94;5068054;28;20037;-84
2022/09/14 04:43:15;;;;;;;0.83;0.83;;;;;;;14.00;88.25;100593.44;5055303;28;20029;-84
2022/09/14 04:45:40;;;;;;;1.07;0.80;;;;;;;14.01;87.85;100590.75;5054964;28;20021;-84
2022/09/14 04:48:05;;;;;;;0.93;0.90;;;;;;;14.02;88.11;100588.97;5054214;28;20082;-84
2022/09/14 04:50:31;;;;;;;0.70;0.70;;;;;;;14.03;87.91;100590.69;5054856;28;20052;-84
2022/09/14 04:52:56;;;;;;;0.60;0.60;;;;;;;14.06;88.01;100588.00;5054879;28;20487;-84
2022/09/14 04:55:23;;;;;;;0.90;0.63;;;;;;;14.05;88.14;100578.44;5053316;28;20029;-84
2022/09/14 04:57:48;;;;;;;0.55;0.47;;;;;;;14.06;87.78;100574.94;5054803;28;20094;-85
2022/09/14 05:00:13;;;;;;;0.50;0.50;;;;;;;14.07;88.18;100566.22;5055038;28;20461;-84
2022/09/14 05:02:40;;;;;;;1.27;0.90;;;;;;;14.11;87.60;100556.50;5054166;28;20423;-85
2022/09/14 05:05:06;;;;;;;1.73;1.15;;;;;;;14.10;87.35;100553.06;5055144;28;20024;-84
2022/09/14 05:07:31;;;;;;;0.60;0.60;;;;;;;14.11;87.26;100557.38;5054804;28;20087;-84
2022/09/14 05:09:56;;;;;;;0.97;0.80;;;;;;;14.10;87.32;100550.47;5073286;28;20047;-85
2022/09/14 05:12:22;;;;;;;2.93;1.23;;;;;;;14.09;88.53;100551.34;5074664;28;20024;-85
2022/09/14 05:14:47;;;;;;;2.33;1.33;;;;;;;14.08;87.28;100554.88;5074208;28;20039;-85
2022/09/14 05:17:12;;;;;;;1.10;0.80;;;;;;;14.10;86.87;100554.81;5073810;28;20025;-85
2022/09/14 05:19:38;;;;;;;1.60;1.10;;;;;;;14.09;88.44;100553.97;5074052;28;20031;-84
2022/09/14 05:22:03;;;;;;;1.07;0.77;;;;;;;14.09;87.15;100555.72;5074279;28;20035;-85
2022/09/14 05:24:28;;;;;;;1.10;1.00;;;;;;;14.08;87.14;100564.44;5073811;28;20033;-85
2022/09/14 05:26:54;;;;;;;0.73;0.73;;;;;;;14.08;87.19;100562.69;5073897;28;20036;-85
2022/09/14 05:29:19;;;;;;;0.97;0.90;;;;;;;14.09;87.94;100573.97;5074321;28;20392;-85
2022/09/14 05:31:45;;;;;;;1.30;1.20;;;;;;;14.10;87.36;100571.34;5073321;28;20021;-85
2022/09/14 05:34:11;;;;;;;0.82;0.77;;;;;;;14.11;88.52;100577.38;5059325;28;20029;-92
2022/09/14 05:36:37;;;;;;;0.63;0.63;;;;;;;14.11;87.36;100577.38;5053469;28;20032;-83
2022/09/14 05:39:04;;;;;;;0.63;0.63;;;;;;;14.12;87.34;100569.53;5055645;28;20029;-89
2022/09/14 05:41:29;;;;;;;0.70;0.70;;;;;;;14.16;87.12;100578.09;5055021;28;20083;-87
2022/09/14 05:43:54;;;;;;;0.70;0.70;;;;;;;14.16;86.92;100573.72;5053824;28;20025;-88
2022/09/14 05:46:20;;;;;;;1.37;0.90;;;;;;;14.19;87.21;100568.41;5054494;28;20021;-86
2022/09/14 05:48:46;;;;;;;0.95;0.77;;;;;;;14.22;87.17;100583.09;5054238;28;20036;-86
2022/09/14 05:51:15;;;;;;;1.90;0.80;;;;;;;14.23;87.77;100583.97;5053845;28;20021;-87
2022/09/14 05:53:41;;;;;;;0.57;0.47;;;;;;;14.23;88.19;100583.97;5053834;28;20096;-87
2022/09/14 05:56:12;;;;;;;1.97;1.37;;;;;;;14.19;87.33;100578.84;5053991;28;20448;-86
2022/09/14 05:58:39;;;;;;;1.40;1.30;;;;;;;14.17;88.38;100582.41;5052915;28;20025;-86
2022/09/14 06:01:12;;;;;;;0.82;0.82;;;;;;;14.13;87.70;100576.44;5054112;28;20029;-86
2022/09/14 06:03:37;;;;;;;1.00;0.98;;;;;;;14.13;89.02;100573.81;5053616;28;20032;-85
2022/09/14 06:06:04;;;;;;;1.20;1.10;;;;;;;14.11;88.27;100585.22;5054374;28;20025;-86
2022/09/14 06:08:29;;;;;;;0.98;0.93;;;;;;;14.12;88.10;100587.78;5053641;28;20079;-86
2022/09/14 06:10:55;;;;;;;0.90;0.90;;;;;;;14.14;88.21;100593.78;5053202;28;20409;-86
2022/09/14 06:13:22;;;;;;;0.80;0.80;;;;;;;14.14;88.50;100598.16;5053426;28;20028;-87
2022/09/14 06:15:48;;;;;;;1.17;1.02;;;;;;;14.11;88.75;100593.03;5053397;28;20086;-86
2022/09/14 06:18:13;;;;;;;0.80;0.80;;;;;;;14.12;88.58;100594.75;5053927;28;20111;-86
2022/09/14 06:20:38;;;;;;;0.70;0.70;;;;;;;14.11;88.06;100596.53;5052571;28;20485;-86
2022/09/14 06:23:03;;;;;;;0.60;0.60;;;;;;;14.12;87.69;100595.63;5053899;28;20021;-87
2022/09/14 06:25:29;;;;;;;0.63;0.63;;;;;;;14.15;88.16;100600.72;5053369;28;20029;-86
2022/09/14 06:27:55;;;;;;;0.55;0.55;;;;;;;14.15;87.81;100595.50;5052775;28;20032;-87
2022/09/14 06:30:20;;;;;;;0.50;0.50;;;;;;;14.19;87.70;100591.88;5054343;28;20025;-86
2022/09/14 06:32:46;;;;;;;0.60;0.60;;;;;;;14.20;88.29;100597.94;5053379;28;20029;-84
2022/09/14 06:35:11;;;;;;;0.60;0.60;;;;;;;14.22;88.03;100590.91;5054583;28;20079;-85
2022/09/14 06:37:36;;;;;;;0.80;0.80;;;;;;;14.25;87.93;100587.34;5072532;28;20043;-85
2022/09/14 06:40:03;;;;;;;1.13;0.70;;;;;;;14.28;87.79;100579.41;5072505;28;20389;-85
2022/09/14 06:42:29;;;;;;;1.27;1.17;;;;;;;14.30;87.54;100581.06;5073151;28;20012;-87
2022/09/14 06:44:55;;;;;;;0.95;0.95;;;;;;;14.31;87.29;100580.16;5072931;28;20055;-86
2022/09/14 06:47:20;;;;;;;1.30;1.17;;;;;;;14.28;88.51;100574.19;5073184;28;20029;-84
2022/09/14 06:49:46;;;;;;;1.23;1.10;;;;;;;14.22;87.88;100562.22;5070613;28;20016;-85
2022/09/14 06:52:11;;;;;;;0.87;0.87;;;;;;;14.23;87.53;100558.69;5072808;28;20031;-85
2022/09/14 06:54:36;;;;;;;1.13;1.03;;;;;;;14.23;87.44;100561.31;5071912;28;20017;-83
2022/09/14 06:57:02;;;;;;;2.17;1.40;;;;;;;14.25;87.32;100572.56;5072468;28;20031;-84
2022/09/14 06:59:27;;;;;;;1.30;1.20;;;;;;;14.22;87.59;100567.44;5067059;28;20342;-85
2022/09/14 07:01:53;;;;;;;1.20;1.10;;;;;;;14.25;88.25;100572.56;5070042;28;20547;-84
2022/09/14 07:04:18;;;;;;;0.73;0.60;;;;;;;14.24;88.55;100567.41;5058334;28;20515;-84
2022/09/14 07:06:46;;;;;;;3.17;2.00;;;;;;;14.16;90.86;100559.84;5052514;28;20016;-85
2022/09/14 07:09:12;;;;;;;1.80;1.70;;;;;;;14.13;89.52;100562.53;5051865;28;20021;-84
2022/09/14 07:11:38;;;;;;;1.53;1.43;;;;;;;14.10;88.63;100562.63;5052321;28;20028;-83
2022/09/14 07:14:03;;;;;;;1.40;1.30;;;;;;;14.12;88.15;100558.22;5051942;28;20074;-82
2022/09/14 07:16:30;;;;;;;1.20;1.10;;;;;;;14.13;88.46;100555.53;5053735;28;20060;-82
2022/09/14 07:18:56;;;;;;;;;;;;;;;14.13;89.28;100552.94;5068440;28;20025;-82
2022/09/14 07:21:23;;;;;;;1.48;1.35;;;;;;;14.12;88.71;100556.47;5067508;28;19916;-82
2022/09/14 07:23:48;;;;;;;3.25;1.75;;;;;;;14.12;90.24;100550.41;5066257;28;20028;-85
2022/09/14 07:26:19;;;;;;;1.70;1.60;;;;;;;14.06;90.53;100556.69;5076414;28;20027;-85
2022/09/14 07:28:48;;;;;;;1.65;1.45;;;;;;;14.02;90.72;100552.44;5061258;28;20025;-82
2022/09/14 07:31:25;;;;;;;3.20;1.70;;;;;;;14.03;89.41;100556.78;5063294;28;20035;-82
2022/09/14 07:33:53;;;;;;;1.00;1.00;;;;;;;14.05;89.15;100562.78;5064954;28;20104;-82
2022/09/14 07:36:19;;;;;;;1.73;1.40;;;;;;;14.05;89.50;100553.22;5075302;28;20031;-82
2022/09/14 07:38:44;;;;;;;3.47;2.60;;;;;;;14.00;91.77;100556.91;5055926;28;20020;-83
2022/09/14 07:41:09;;;;;;;2.30;2.10;;;;;;;13.97;91.19;100551.78;5056533;28;20056;-82
2022/09/14 07:43:35;;;;;;;3.53;1.97;;;;;;;13.97;91.58;100562.22;5055655;28;20029;-82
2022/09/14 07:46:03;;;;;;;1.57;1.47;;;;;;;13.98;90.44;100562.16;5075391;28;20020;-82
2022/09/14 07:48:29;;;;;;;2.55;2.03;;;;;;;13.99;91.88;100556.03;5076227;28;20059;-82
2022/09/14 07:50:59;;;;;;;5.53;2.30;;;;;;;13.97;92.02;100555.22;5075061;28;20027;-82
2022/09/14 07:53:25;;;;;;;4.22;1.98;;;;;;;14.02;91.82;100557.69;5067468;28;20421;-82
2022/09/14 07:55:50;;;;;;;5.57;2.23;;;;;;;14.01;91.02;100546.41;5056010;28;20055;-82
2022/09/14 07:58:15;;;;;;;3.73;2.30;;;;;;;14.06;92.76;100546.25;5054921;28;20102;-82
2022/09/14 08:00:40;;;;;;;2.17;1.90;;;;;;;14.04;92.02;100541.09;5055751;28;20025;-83
2022/09/14 08:03:06;;;;;;;4.13;2.73;;;;;;;14.01;93.87;100545.56;5055948;28;20374;-83
2022/09/14 08:05:31;;;;;;;5.03;3.17;;;;;;;13.97;93.46;100549.16;5055250;28;20043;-82
2022/09/14 08:07:57;;;;;;;3.63;2.10;;;;;;;14.00;92.31;100551.69;5055630;28;20033;-84
2022/09/14 08:10:23;;;;;;;3.53;2.47;;;;;;;14.02;93.95;100553.31;5056769;28;20045;-84
2022/09/14 08:12:53;;;;;;;3.42;2.40;;;;;;;14.04;93.41;100548.03;5054706;28;20025;-84
2022/09/14 08:15:19;;;;;;;2.72;2.00;;;;;;;14.09;92.07;100542.66;5056300;28;20397;-84
2022/09/14 08:17:45;;;;;;;1.73;1.63;;;;;;;14.15;91.72;100538.09;5071011;28;20033;-84
2022/09/14 08:20:10;;;;;;;1.60;1.50;;;;;;;14.24;91.35;100536.91;5072831;28;20082;-85
2022/09/14 08:22:36;;;;;;;1.80;1.70;;;;;;;14.31;93.47;100534.94;5073756;28;20029;-85
2022/09/14 08:25:01;;;;;;;2.10;1.70;;;;;;;14.32;92.33;100536.66;5073779;28;20055;-84
2022/09/14 08:27:26;;;;;;;4.53;2.70;;;;;;;14.32;92.18;100537.47;5073164;28;20111;-84
2022/09/14 08:29:53;;;;;;;9.10;3.60;;;;;;;14.20;93.09;100541.41;5071265;28;20564;-84
2022/09/14 08:32:18;;;;;;;6.28;3.85;;;;;;;14.12;93.71;100545.16;5075182;28;20491;-84
2022/09/14 08:34:43;;;;;;;5.03;2.90;;;;;;;14.14;92.43;100546.81;5074081;28;20112;-84
2022/09/14 08:37:09;;;;;;;3.33;2.50;;;;;;;14.20;92.79;100546.63;5068534;28;20021;-84
2022/09/14 08:39:35;;;;;;;2.00;1.90;;;;;;;14.22;92.42;100551.78;5063761;28;20053;-84
2022/09/14 08:42:01;;;;;;;1.77;1.67;;;;;;;14.28;92.35;100548.97;5058434;28;20381;-84
2022/09/14 08:44:37;;;;;;;2.53;1.88;;;;;;;14.32;92.77;100555.75;5055418;28;20040;-84
2022/09/14 08:47:08;;;;;;;3.15;2.40;;;;;;;14.30;92.67;100554.13;5069328;28;20105;-84
2022/09/14 08:50:03;;;;;;;3.70;2.47;;;;;;;14.30;92.74;100551.50;5075316;28;20028;-83
2022/09/14 08:52:39;;;;;;;4.25;2.53;;;;;;;14.29;93.15;100549.81;5072332;28;20043;-84
2022/09/14 08:55:37;;;;;;;2.08;1.85;;;;;;;14.33;92.92;100551.41;5074378;28;20085;-83
2022/09/14 08:58:24;;;;;;;1.70;1.60;;;;;;;14.36;92.43;100557.38;5075125;28;20032;-85
2022/09/14 09:01:11;;;;;;;2.40;1.60;;;;;;;14.40;92.10;100557.25;5073718;28;20029;-87
2022/09/14 09:03:58;;;;;;;4.05;2.10;;;;;;;14.41;92.26;100561.59;5074467;28;20115;-84
2022/09/14 09:06:51;;;;;;;1.60;1.50;;;;;;;14.45;92.56;100566.63;5074590;28;20099;-85
2022/09/14 09:09:35;;;;;;;3.88;2.40;;;;;;;14.44;92.86;100551.88;5074257;28;20154;-84
2022/09/14 09:12:01;;;;;;;9.82;3.30;;;;;;;14.34;92.40;100551.34;5074357;28;20065;-84
2022/09/14 09:14:37;;;;;;;6.33;3.07;;;;;;;14.29;94.48;100555.88;5072483;28;20056;-84
2022/09/14 09:17:12;;;;;;;5.85;3.20;;;;;;;14.28;93.78;100543.75;5074266;28;20055;-84
2022/09/14 09:19:48;;;;;;;4.55;2.97;;;;;;;14.27;94.17;100549.00;5074316;28;20380;-84
2022/09/14 09:22:19;;;;;;;7.35;3.55;;;;;;;14.25;93.40;100550.81;5074150;28;20025;-85
2022/09/14 09:24:49;;;;;;;3.40;2.60;;;;;;;14.28;92.74;100546.34;5074150;28;20542;-84
2022/09/14 09:27:15;;;;;;;2.30;2.05;;;;;;;14.35;93.53;100544.38;5074406;28;20032;-84
2022/09/14 09:29:41;;;;;;;2.10;2.00;;;;;;;14.39;92.95;100555.56;5073682;28;20035;-84
2022/09/14 09:32:26;;;;;;;6.10;3.07;;;;;;;14.38;94.75;100553.84;5074582;28;20084;-85
2022/09/14 09:34:52;;;;;;;4.75;3.08;;;;;;;14.34;94.71;100553.94;5073354;28;20049;-84
2022/09/14 09:37:22;;;;;;;6.13;4.10;;;;;;;14.26;94.64;100553.38;5073452;28;20021;-84
2022/09/14 09:39:48;;;;;;;6.10;3.80;;;;;;;14.25;94.57;100545.59;5073228;28;20040;-84
2022/09/14 09:42:25;;;;;;;4.93;3.42;;;;;;;14.28;95.02;100550.69;5074210;28;20124;-84
2022/09/14 09:44:54;;;;;;;4.60;3.38;;;;;;;14.26;94.77;100548.16;5071546;28;20385;-85
2022/09/14 09:47:36;;;;;;;7.00;3.47;;;;;;;14.27;94.77;100547.25;5073841;28;20043;-84
2022/09/14 09:50:05;;;;;;;5.75;3.53;;;;;;;14.28;96.20;100546.34;5073190;28;20021;-84
2022/09/14 09:52:31;;;;;;;4.75;3.15;;;;;;;14.31;95.49;100540.16;5073728;28;20024;-83
2022/09/14 09:54:59;;;;;;;6.03;3.30;;;;;;;14.32;95.60;100536.66;5073769;28;20029;-85
2022/09/14 09:57:30;;;;;;;3.50;3.05;;;;;;;14.35;94.59;100554.81;5073055;28;20029;-84
2022/09/14 10:00:30;;;;;;;3.38;2.40;;;;;;;14.38;94.44;100554.69;5073530;28;20209;-84
2022/09/14 10:02:56;;;;;;;3.50;2.60;;;;;;;14.39;94.09;100551.16;5010695;28;20047;-84
2022/09/14 10:05:33;;;;;;;2.73;2.43;;;;;;;14.42;94.72;100544.97;5053133;28;20470;-84
2022/09/14 10:07:59;;;;;;;2.85;2.35;;;;;;;14.47;93.54;100543.06;5053526;28;20021;-85
2022/09/14 10:10:45;;;;;;;2.03;1.92;;;;;;;14.55;93.57;100550.63;5053658;28;20033;-86
2022/09/14 10:13:34;;;;;;;2.00;1.80;;;;;;;14.64;95.08;100550.28;5053835;28;20418;-85
2022/09/14 10:16:17;;;;;;;7.13;3.90;;;;;;;14.61;94.17;100545.16;5061607;28;20485;-84
2022/09/14 10:18:47;;;;;;;3.05;2.65;;;;;;;14.70;93.82;100551.84;5072358;28;20024;-85
2022/09/14 10:21:24;;;;;;;3.58;2.78;;;;;;;14.81;94.84;100547.91;5073367;28;20461;-85
2022/09/14 10:24:14;;;;;;;2.20;2.00;;;;;;;14.93;93.32;100541.38;5073216;28;20070;-85
2022/09/14 10:26:39;;;;;;;1.98;1.88;;;;;;;15.11;93.87;100544.19;5072012;28;20027;-85
2022/09/14 10:29:34;;;;;;;2.17;1.90;;;;;;;15.22;93.08;100544.63;5070452;28;20040;-85
2022/09/14 10:32:26;;;;;;;2.05;1.85;;;;;;;15.36;93.05;100551.94;5054874;28;20051;-83
2022/09/14 10:34:51;;;;;;;3.42;2.22;;;;;;;15.41;92.85;100547.34;5067959;28;20036;-85
2022/09/14 10:37:31;;;;;;;4.17;2.70;;;;;;;15.38;91.83;100551.84;5073023;28;20097;-85
2022/09/14 10:40:15;;;;;;;2.85;2.17;;;;;;;15.35;91.63;100547.63;5072011;28;20063;-84
2022/09/14 10:42:53;;;;;;;2.72;2.40;;;;;;;15.32;90.11;100542.50;5071202;28;20036;-85
2022/09/14 10:45:34;;;;;;;4.70;3.10;;;;;;;15.22;91.08;100542.00;5072902;28;20028;-84
2022/09/14 10:48:24;;;;;;;2.88;2.67;;;;;;;15.19;90.90;100542.16;5071507;28;20050;-85
2022/09/14 10:50:58;;;;;;;2.55;2.35;;;;;;;15.18;91.03;100537.81;5072571;28;20384;-85
2022/09/14 10:54:00;;;;;;;2.88;2.10;;;;;;;15.18;90.93;100540.44;5071762;28;20089;-84
2022/09/14 10:56:33;;;;;;;2.00;1.90;;;;;;;15.19;90.96;100542.16;5072613;28;20028;-85
2022/09/14 10:59:08;;;;;;;1.70;1.60;;;;;;;15.23;91.55;100535.03;5072702;28;20043;-85
2022/09/14 11:01:51;;;;;;;4.35;2.65;;;;;;;15.11;89.81;100531.97;5071750;28;20034;-84
2022/09/14 11:04:41;;;;;;;3.97;2.92;;;;;;;15.04;90.00;100532.28;5072770;28;20025;-85
2022/09/14 11:07:06;;;;;;;3.00;2.25;;;;;;;15.04;90.32;100533.13;5070879;28;20032;-85
2022/09/14 11:09:54;;;;;;;2.27;2.07;;;;;;;15.09;90.67;100530.31;5072472;28;20028;-84
2022/09/14 11:12:51;;;;;;;2.20;2.00;;;;;;;15.13;90.94;100531.91;5072788;28;20526;-84
2022/09/14 11:15:25;;;;;;;2.13;1.80;;;;;;;15.16;90.57;100530.94;5060622;28;20419;-85
2022/09/14 11:18:28;;;;;;;1.95;1.80;;;;;;;15.20;90.30;100535.13;5072293;28;20508;-82
2022/09/14 11:21:19;;;;;;;2.00;1.67;;;;;;;15.22;90.02;100530.72;5071900;28;20064;-85
2022/09/14 11:23:50;;;;;;;4.30;2.50;;;;;;;15.18;89.71;100532.59;5051739;28;20068;-85
2022/09/14 11:26:30;;;;;;;4.85;3.50;;;;;;;15.05;89.47;100523.53;5052830;28;20111;-85
2022/09/14 11:29:25;;;;;;;3.58;2.72;;;;;;;14.98;89.55;100528.97;5051996;28;20024;-85
2022/09/14 11:32:14;;;;;;;2.85;2.40;;;;;;;15.00;90.01;100526.31;5050358;28;20033;-85
2022/09/14 11:34:46;;;;;;;2.25;2.00;;;;;;;15.01;90.25;100514.97;5070514;28;20016;-84
2022/09/14 11:37:15;;;;;;;5.28;3.50;;;;;;;14.92;89.97;100524.00;5051637;28;20532;-84
2022/09/14 11:39:47;;;;;;;4.10;3.00;;;;;;;14.87;90.30;100525.09;5051348;28;20036;-84
2022/09/14 11:42:29;;;;;;;3.97;3.20;;;;;;;14.85;90.12;100525.16;5052459;28;20373;-85